SCC: Trois-Rivieres: GS practice one times

Pos Num Class Team Time Gap To 1st Speed --- --- ----- ------------------------------ ---------- ------- ------- ------- 1. 5 GS Blackforest Motorsports 1:12.510 75.515 2. 49...

Pos Num Class Team                                 Time     Gap  To 1st   Speed
--- --- ----- ------------------------------ ---------- ------- ------- -------
 1.   5 GS    Blackforest Motorsports          1:12.510                  75.515
 2.  49 GS    Marcus Motorsports               1:13.050   0.540   0.540  74.957
 3.  55 GS    Hyper Sport                      1:13.210   0.160   0.700  74.793
 4.  79 GS    Kinetic Motorsports              1:13.281   0.071   0.771  74.721
 5.  96 GS    Turner Motorsport                1:13.312   0.031   0.802  74.689
 6.  41 GS    TRG                              1:13.652   0.340   1.142  74.344
 7.  99 GS    Automatic Racing                 1:13.973   0.321   1.463  74.022
 8.  91 GS    Automatic Racing                 1:14.166   0.193   1.656  73.829
 9.  25 GS    Fiorano/C-MAX Racing             1:14.416   0.250   1.906  73.581
10.  40 GS    TRG                              1:14.464   0.048   1.954  73.534
11.  97 GS    Turner Motorsport                1:14.514   0.050   2.004  73.484
12.  89 GS    Ranger Sports Racing             1:14.525   0.011   2.015  73.473
13.  09 GS    Automatic Racing                 1:14.563   0.038   2.053  73.436
14.  39 GS    TRG                              1:14.563   0.000   2.053  73.436
15.  82 GS    BRG/Group 88 Motorsports         1:14.592   0.029   2.082  73.407
16.  52 GS    Rehagen Racing                   1:14.965   0.373   2.455  73.042
17.  83 GS    BGB Motorsports                  1:15.137   0.172   2.627  72.875
18.  59 GS    Rehagen Racing                   1:15.163   0.026   2.653  72.850
19. 150 GS    Rehagen Racing                   1:15.234   0.071   2.724  72.781
20.   4 GS    Blackforest Motorsports          1:15.547   0.313   3.037  72.479
21.  38 GS    BGB Motorsports                  1:15.666   0.119   3.156  72.365
22.  90 GS    Automatic Racing                 1:15.801   0.135   3.291  72.237
23.  42 GS    TRG                              1:15.956   0.155   3.446  72.089
24. 154 GS    Rehagen Racing                   1:16.067   0.111   3.557  71.984
25.  37 GS    JBS Racing                       1:16.432   0.365   3.922  71.640
26. 137 GS    JBS Motorsports                  1:16.656   0.224   4.146  71.431
27.  54 GS    Hyper Sport                      1:16.735   0.079   4.225  71.357
28.  88 GS    Ranger Sports Racing             1:17.403   0.668   4.893  70.741

Write a comment
Show comments
About this article
Series Grand-Am
Teams Kinetic Motorsports , Rehagen Racing , Turner Motorsport , Automatic Racing